createdAt,value
2023-02-12T00:01:29.233Z,57.50
2023-02-12T00:03:59.276Z,57.70
2023-02-12T00:06:28.032Z,57.80
2023-02-12T00:08:57.995Z,57.80
2023-02-12T00:11:27.873Z,57.90
2023-02-12T00:13:57.191Z,57.90
2023-02-12T00:16:28.646Z,58.00
2023-02-12T00:19:00.123Z,58.10
2023-02-12T00:21:28.908Z,58.30
2023-02-12T00:23:58.832Z,58.50
2023-02-12T00:26:27.170Z,58.70
2023-02-12T00:28:56.439Z,58.70
2023-02-12T00:31:26.443Z,58.90
2023-02-12T00:34:00.457Z,59.10
2023-02-12T00:36:30.879Z,59.10
2023-02-12T00:39:01.535Z,59.30
2023-02-12T00:41:30.683Z,59.50
2023-02-12T00:43:59.395Z,59.70
2023-02-12T00:46:28.462Z,59.80
2023-02-12T00:48:58.212Z,60.10
2023-02-12T00:51:26.650Z,60.30
2023-02-12T00:53:55.118Z,60.60
2023-02-12T00:56:23.449Z,60.60
2023-02-12T00:58:51.929Z,60.80
2023-02-12T01:01:20.430Z,60.90
2023-02-12T01:03:48.806Z,61.20
2023-02-12T01:06:18.440Z,61.60
2023-02-12T01:08:51.810Z,62.00
2023-02-12T01:11:20.857Z,62.40
2023-02-12T01:13:50.159Z,63.00
2023-02-12T01:16:22.845Z,63.80
2023-02-12T01:18:55.537Z,64.40
2023-02-12T01:21:29.185Z,65.00
2023-02-12T01:23:58.379Z,65.40
2023-02-12T01:26:28.259Z,65.80
2023-02-12T01:28:58.391Z,66.40
2023-02-12T01:31:29.158Z,67.00
2023-02-12T01:33:59.748Z,67.90
2023-02-12T01:36:30.925Z,68.90
2023-02-12T01:38:59.476Z,69.90
2023-02-12T01:41:30.145Z,71.00
2023-02-12T01:44:13.647Z,72.40
2023-02-12T01:46:43.146Z,73.60
2023-02-12T01:49:16.506Z,74.30
2023-02-12T01:51:49.795Z,75.10
2023-02-12T01:54:23.077Z,76.00
2023-02-12T01:56:51.469Z,76.60
2023-02-12T01:59:21.805Z,77.30
2023-02-12T02:01:50.291Z,77.60
2023-02-12T02:04:23.207Z,78.10
2023-02-12T02:06:58.009Z,78.40
2023-02-12T02:09:27.731Z,78.50
2023-02-12T02:12:14.786Z,78.60
2023-02-12T02:14:44.317Z,78.70
2023-02-12T02:17:37.700Z,78.40
2023-02-12T02:20:34.850Z,78.40
2023-02-12T02:23:31.987Z,78.30
2023-02-12T02:26:27.571Z,77.90
2023-02-12T02:29:12.058Z,77.60
2023-02-12T02:31:45.628Z,77.30
2023-02-12T02:34:20.890Z,77.30
2023-02-12T02:37:00.555Z,77.30
2023-02-12T02:39:36.322Z,77.50
2023-02-12T02:42:11.244Z,77.80
2023-02-12T02:44:45.052Z,78.10
2023-02-12T02:47:17.285Z,78.50
2023-02-12T02:49:49.264Z,79.10
2023-02-12T02:52:21.482Z,79.50
2023-02-12T02:54:53.982Z,80.00
2023-02-12T02:57:26.713Z,80.20
2023-02-12T02:59:59.716Z,80.90
2023-02-12T03:02:33.992Z,81.80
2023-02-12T03:05:07.511Z,82.20
2023-02-12T03:07:39.786Z,82.70
2023-02-12T03:10:14.741Z,83.40
2023-02-12T03:12:48.920Z,83.90
2023-02-12T03:15:24.616Z,85.10
2023-02-12T03:17:54.497Z,84.80
2023-02-12T03:20:27.563Z,85.00
2023-02-12T03:23:01.839Z,85.70
2023-02-12T03:25:35.765Z,86.20
2023-02-12T03:28:08.674Z,87.60
2023-02-12T03:30:46.716Z,88.60
2023-02-12T03:33:23.644Z,89.30
2023-02-12T03:36:00.811Z,89.50
2023-02-12T03:38:38.076Z,89.20
2023-02-12T03:41:11.068Z,89.10
2023-02-12T03:43:50.385Z,89.20
2023-02-12T03:46:24.206Z,89.50
2023-02-12T03:49:02.456Z,89.50
2023-02-12T03:51:36.274Z,90.00
2023-02-12T03:54:06.157Z,90.40
2023-02-12T03:56:39.667Z,90.60
2023-02-12T03:59:08.417Z,91.00
2023-02-12T04:01:37.927Z,91.40
2023-02-12T04:04:09.732Z,91.60
2023-02-12T04:06:38.264Z,91.80
2023-02-12T04:09:10.185Z,92.10
2023-02-12T04:11:49.223Z,92.30
2023-02-12T04:14:25.989Z,92.60
2023-02-12T04:17:04.674Z,93.10
2023-02-12T04:19:44.368Z,93.70
2023-02-12T04:22:31.106Z,94.10
2023-02-12T04:25:07.698Z,94.40
2023-02-12T04:27:44.050Z,94.50
2023-02-12T04:30:20.284Z,94.70
2023-02-12T04:32:52.067Z,94.80
2023-02-12T04:35:26.143Z,94.90
2023-02-12T04:38:00.794Z,95.00
2023-02-12T04:40:29.738Z,95.30
2023-02-12T04:42:58.239Z,95.50
2023-02-12T04:45:29.274Z,95.50
2023-02-12T04:47:57.979Z,95.40
2023-02-12T04:50:29.517Z,95.40
2023-02-12T04:52:57.937Z,95.60
2023-02-12T04:55:26.255Z,95.60
2023-02-12T04:57:54.649Z,95.60
2023-02-12T05:00:23.316Z,95.50
2023-02-12T05:02:51.738Z,95.50
2023-02-12T05:05:20.102Z,95.50
2023-02-12T05:07:49.817Z,95.50
2023-02-12T05:10:18.327Z,95.40
2023-02-12T05:12:46.720Z,95.40
2023-02-12T05:15:15.175Z,95.40
2023-02-12T05:17:44.904Z,95.50
2023-02-12T05:20:14.153Z,95.40
2023-02-12T05:22:42.777Z,95.40
2023-02-12T05:25:12.790Z,95.40
2023-02-12T05:27:41.156Z,95.40
2023-02-12T05:30:10.691Z,95.50
2023-02-12T05:32:39.097Z,95.80
2023-02-12T05:35:08.936Z,95.90
2023-02-12T05:37:37.959Z,96.00
2023-02-12T05:40:09.052Z,96.00
2023-02-12T05:42:39.378Z,96.10
2023-02-12T05:45:08.478Z,97.20
2023-02-12T05:47:36.856Z,97.60
2023-02-12T05:50:05.651Z,97.70
2023-02-12T05:52:34.740Z,97.70
2023-02-12T05:55:03.024Z,97.80
2023-02-12T05:57:31.410Z,97.90
2023-02-12T06:00:01.020Z,98.10
2023-02-12T06:02:29.896Z,98.40
2023-02-12T06:04:58.331Z,98.60
2023-02-12T06:07:26.703Z,99.20
2023-02-12T06:09:55.239Z,99.60
2023-02-12T06:12:23.644Z,99.90
2023-02-12T06:14:52.306Z,99.90
2023-02-12T06:17:22.004Z,99.90
2023-02-12T06:19:50.476Z,99.90
2023-02-12T06:22:18.820Z,99.90
2023-02-12T06:24:47.181Z,99.90
2023-02-12T06:27:15.461Z,99.90
2023-02-12T06:29:44.033Z,99.90
2023-02-12T06:32:13.762Z,99.90
2023-02-12T06:34:43.513Z,99.90
2023-02-12T06:37:12.885Z,99.90
2023-02-12T06:39:41.244Z,99.90
2023-02-12T06:42:09.661Z,99.90
2023-02-12T06:44:38.012Z,99.90
2023-02-12T06:47:06.420Z,99.90
2023-02-12T06:49:34.829Z,99.90
2023-02-12T06:52:04.497Z,99.90
2023-02-12T06:54:32.910Z,99.90
2023-02-12T06:57:01.239Z,99.90
2023-02-12T06:59:29.652Z,99.90
2023-02-12T07:01:57.949Z,97.50
2023-02-12T07:04:26.345Z,94.70
2023-02-12T07:06:54.693Z,91.30
2023-02-12T07:09:24.386Z,85.70
2023-02-12T07:11:53.519Z,80.70
2023-02-12T07:14:21.824Z,77.00
2023-02-12T07:16:50.269Z,74.30
2023-02-12T07:19:18.717Z,71.40
2023-02-12T07:21:47.100Z,69.10
2023-02-12T07:24:18.315Z,67.00
2023-02-12T07:26:48.243Z,65.30
2023-02-12T07:29:17.284Z,63.10
2023-02-12T07:31:45.613Z,61.10
2023-02-12T07:34:14.069Z,59.80
2023-02-12T07:36:42.543Z,58.70
2023-02-12T07:39:13.280Z,58.10
2023-02-12T07:41:41.760Z,57.40
2023-02-12T07:44:13.617Z,56.80
2023-02-12T07:46:46.961Z,55.60
2023-02-12T07:49:18.279Z,55.00
2023-02-12T07:51:47.402Z,54.50
2023-02-12T07:54:15.898Z,54.20
2023-02-12T07:56:47.466Z,53.50
2023-02-12T07:59:18.775Z,52.50
2023-02-12T08:01:48.897Z,51.70
2023-02-12T08:04:20.261Z,50.60
2023-02-12T08:06:50.567Z,49.10
2023-02-12T08:09:20.836Z,47.80
2023-02-12T08:11:49.989Z,46.80
2023-02-12T08:14:22.231Z,45.70
2023-02-12T08:16:51.870Z,45.10
2023-02-12T08:19:24.893Z,44.10
2023-02-12T08:21:55.972Z,43.40
2023-02-12T08:24:25.089Z,43.20
2023-02-12T08:26:54.162Z,42.10
2023-02-12T08:29:26.086Z,41.80
2023-02-12T08:31:58.355Z,41.50
2023-02-12T08:34:28.599Z,41.50
2023-02-12T08:36:57.953Z,41.10
2023-02-12T08:39:28.540Z,40.70
2023-02-12T08:41:58.011Z,40.40
2023-02-12T08:44:27.805Z,40.00
2023-02-12T08:46:56.814Z,39.90
2023-02-12T08:49:27.448Z,40.20
2023-02-12T08:51:57.776Z,39.90
2023-02-12T08:54:28.088Z,40.10
2023-02-12T08:56:57.821Z,40.30
2023-02-12T08:59:27.902Z,39.80
2023-02-12T09:01:56.760Z,39.00
2023-02-12T09:04:28.248Z,37.40
2023-02-12T09:06:57.445Z,36.60
2023-02-12T09:09:26.015Z,36.40
2023-02-12T09:11:54.329Z,36.20
2023-02-12T09:14:25.124Z,36.10
2023-02-12T09:16:57.490Z,35.50
2023-02-12T09:19:26.466Z,34.60
2023-02-12T09:21:56.779Z,33.60
2023-02-12T09:24:27.965Z,33.20
2023-02-12T09:26:56.637Z,32.70
2023-02-12T09:29:25.094Z,32.30
2023-02-12T09:31:55.003Z,31.70
2023-02-12T09:34:23.536Z,31.10
2023-02-12T09:36:51.928Z,31.00
2023-02-12T09:39:20.303Z,30.50
2023-02-12T09:42:05.534Z,30.30
2023-02-12T09:44:41.825Z,31.00
2023-02-12T09:47:18.584Z,30.90
2023-02-12T09:50:00.056Z,31.30
2023-02-12T09:52:30.243Z,31.10
2023-02-12T09:54:59.633Z,30.80
2023-02-12T09:57:33.638Z,31.20
2023-02-12T10:00:06.585Z,31.60
2023-02-12T10:02:39.339Z,31.70
2023-02-12T10:05:17.524Z,31.80
2023-02-12T10:08:07.406Z,32.00
2023-02-12T10:10:48.809Z,30.60
2023-02-12T10:13:28.028Z,30.40
2023-02-12T10:16:02.346Z,29.90
2023-02-12T10:18:51.222Z,29.50
2023-02-12T10:21:28.126Z,29.10
2023-02-12T10:24:07.917Z,29.40
2023-02-12T10:26:41.023Z,29.50
2023-02-12T10:29:15.968Z,29.60
2023-02-12T10:31:47.386Z,29.20
2023-02-12T10:34:22.184Z,28.90
2023-02-12T10:36:54.271Z,29.00
2023-02-12T10:39:25.368Z,29.00
2023-02-12T10:41:59.476Z,29.10
2023-02-12T10:44:28.084Z,29.30
2023-02-12T10:46:56.747Z,29.30
2023-02-12T10:49:26.551Z,29.10
2023-02-12T10:52:09.870Z,28.70
2023-02-12T10:54:41.848Z,28.40
2023-02-12T10:57:16.557Z,28.40
2023-02-12T10:59:47.035Z,28.60
2023-02-12T11:02:27.798Z,28.30
2023-02-12T11:04:59.423Z,28.10
2023-02-12T11:07:30.109Z,28.30
2023-02-12T11:09:58.908Z,28.30
2023-02-12T11:12:35.984Z,28.50
2023-02-12T11:15:09.093Z,28.10
2023-02-12T11:17:39.509Z,28.10
2023-02-12T11:20:28.173Z,28.20
2023-02-12T11:22:59.631Z,27.60
2023-02-12T11:25:30.077Z,27.80
2023-02-12T11:28:14.232Z,28.40
2023-02-12T11:30:54.678Z,28.10
2023-02-12T11:33:29.702Z,28.40
2023-02-12T11:36:05.631Z,28.00
2023-02-12T11:38:38.682Z,28.00
2023-02-12T11:41:20.700Z,27.50
2023-02-12T11:43:50.063Z,27.60
2023-02-12T11:46:24.086Z,28.20
2023-02-12T11:48:54.675Z,27.60
2023-02-12T11:51:29.320Z,27.90
2023-02-12T11:54:00.851Z,28.40
2023-02-12T11:56:43.829Z,28.40
2023-02-12T11:59:33.198Z,28.40
2023-02-12T12:02:07.177Z,28.70
2023-02-12T12:04:37.234Z,28.70
2023-02-12T12:07:15.040Z,28.60
2023-02-12T12:09:47.558Z,28.50
2023-02-12T12:12:22.738Z,28.40
2023-02-12T12:15:12.526Z,28.10
2023-02-12T12:18:05.714Z,27.70
2023-02-12T12:20:40.160Z,27.40
2023-02-12T12:23:17.269Z,27.20
2023-02-12T12:25:50.561Z,27.70
2023-02-12T12:28:33.720Z,27.40
2023-02-12T12:31:09.535Z,27.20
2023-02-12T12:33:44.457Z,27.80
2023-02-12T12:36:43.621Z,27.70
2023-02-12T12:39:28.201Z,27.60
2023-02-12T12:42:26.706Z,27.40
2023-02-12T12:45:16.813Z,27.10
2023-02-12T12:48:01.351Z,27.40
2023-02-12T12:50:48.450Z,27.60
2023-02-12T12:53:26.405Z,27.80
2023-02-12T12:56:23.122Z,27.20
2023-02-12T12:59:12.681Z,27.00
2023-02-12T13:02:22.592Z,26.90
2023-02-12T13:05:15.536Z,26.70
2023-02-12T13:07:53.966Z,26.70
2023-02-12T13:10:34.406Z,26.60
2023-02-12T13:13:16.617Z,26.50
2023-02-12T13:15:52.265Z,25.80
2023-02-12T13:18:36.177Z,25.90
2023-02-12T13:21:14.620Z,26.10
2023-02-12T13:23:52.158Z,26.30
2023-02-12T13:26:30.706Z,25.70
2023-02-12T13:29:06.999Z,25.60
2023-02-12T13:31:40.597Z,25.90
2023-02-12T13:34:15.888Z,26.20
2023-02-12T13:36:45.019Z,26.20
2023-02-12T13:39:23.981Z,26.50
2023-02-12T13:42:03.397Z,26.50
2023-02-12T13:44:41.740Z,26.20
2023-02-12T13:47:17.836Z,26.30
2023-02-12T13:49:53.699Z,26.30
2023-02-12T13:52:32.313Z,26.00
2023-02-12T13:55:12.557Z,25.70
2023-02-12T13:57:41.045Z,26.30
2023-02-12T14:00:51.653Z,25.90
2023-02-12T14:03:25.101Z,25.70
2023-02-12T14:06:12.325Z,26.20
2023-02-12T14:08:43.488Z,26.40
2023-02-12T14:11:15.057Z,26.50
2023-02-12T14:13:55.049Z,26.60
2023-02-12T14:16:40.715Z,26.20
2023-02-12T14:19:41.046Z,25.90
2023-02-12T14:22:14.484Z,25.80
2023-02-12T14:24:53.624Z,26.00
2023-02-12T14:27:32.462Z,26.10
2023-02-12T14:30:30.138Z,25.90
2023-02-12T14:33:27.427Z,25.90
2023-02-12T14:36:20.438Z,26.00
2023-02-12T14:39:01.371Z,26.20
2023-02-12T14:41:37.887Z,26.40
2023-02-12T14:44:45.826Z,26.60
2023-02-12T14:47:53.841Z,26.70
2023-02-12T14:50:29.860Z,26.90
2023-02-12T14:53:06.202Z,27.00
2023-02-12T14:55:36.461Z,27.10
2023-02-12T14:58:08.922Z,27.30
2023-02-12T15:00:40.258Z,27.50
2023-02-12T15:03:26.458Z,27.90
2023-02-12T15:06:04.073Z,28.30
2023-02-12T15:08:44.468Z,28.50
2023-02-12T15:11:29.598Z,28.90
2023-02-12T15:14:03.127Z,29.40
2023-02-12T15:16:38.973Z,29.80
2023-02-12T15:19:20.052Z,30.20
2023-02-12T15:21:54.697Z,31.00
2023-02-12T15:24:24.993Z,31.10
2023-02-12T15:26:55.380Z,31.40
2023-02-12T15:29:26.413Z,31.50
2023-02-12T15:31:57.417Z,31.60
2023-02-12T15:34:29.875Z,31.40
2023-02-12T15:37:02.014Z,31.20
2023-02-12T15:39:37.790Z,31.20
2023-02-12T15:42:06.346Z,31.20
2023-02-12T15:44:35.142Z,31.50
2023-02-12T15:47:12.819Z,31.70
2023-02-12T15:49:42.723Z,32.20
2023-02-12T15:52:20.040Z,32.60
2023-02-12T15:54:49.733Z,33.30
2023-02-12T15:57:23.524Z,33.60
2023-02-12T15:59:53.937Z,34.80
2023-02-12T16:02:28.519Z,35.20
2023-02-12T16:04:58.349Z,35.50
2023-02-12T16:07:33.230Z,36.10
2023-02-12T16:10:02.370Z,36.50
2023-02-12T16:12:36.981Z,36.80
2023-02-12T16:15:06.116Z,36.90
2023-02-12T16:17:37.012Z,37.20
2023-02-12T16:20:09.844Z,37.70
2023-02-12T16:22:42.007Z,37.70
2023-02-12T16:25:17.523Z,38.30
2023-02-12T16:27:56.832Z,38.60
2023-02-12T16:30:29.692Z,38.80
2023-02-12T16:32:58.735Z,39.20
2023-02-12T16:35:31.977Z,39.80
2023-02-12T16:38:24.630Z,39.80
2023-02-12T16:41:23.577Z,40.10
2023-02-12T16:44:13.120Z,40.60
2023-02-12T16:46:49.271Z,40.70
2023-02-12T16:49:20.914Z,41.00
2023-02-12T16:51:50.330Z,41.30
2023-02-12T16:54:31.270Z,41.30
2023-02-12T16:57:02.482Z,41.70
2023-02-12T16:59:31.240Z,41.80
2023-02-12T17:02:02.857Z,42.10
2023-02-12T17:04:31.753Z,42.00
2023-02-12T17:07:00.133Z,42.10
2023-02-12T17:09:30.495Z,42.00
2023-02-12T17:11:58.900Z,42.00
2023-02-12T17:14:27.307Z,41.90
2023-02-12T17:16:55.733Z,42.00
2023-02-12T17:19:24.117Z,42.10
2023-02-12T17:21:53.065Z,42.10
2023-02-12T17:24:24.312Z,42.70
2023-02-12T17:26:54.806Z,42.70
2023-02-12T17:29:24.822Z,42.80
2023-02-12T17:31:55.477Z,43.10
2023-02-12T17:34:24.866Z,43.50
2023-02-12T17:36:53.354Z,43.60
2023-02-12T17:39:21.863Z,43.70
2023-02-12T17:41:51.637Z,43.90
2023-02-12T17:44:21.353Z,44.20
2023-02-12T17:46:49.699Z,44.10
2023-02-12T17:49:18.167Z,44.50
2023-02-12T17:51:46.585Z,44.60
2023-02-12T17:54:17.659Z,44.50
2023-02-12T17:56:46.187Z,44.70
2023-02-12T17:59:14.620Z,44.80
2023-02-12T18:01:45.826Z,45.00
2023-02-12T18:04:14.790Z,45.20
2023-02-12T18:06:43.229Z,45.40
2023-02-12T18:09:11.544Z,45.80
2023-02-12T18:11:42.274Z,45.80
2023-02-12T18:14:12.565Z,45.90
2023-02-12T18:16:40.916Z,45.90
2023-02-12T18:19:10.663Z,46.00
2023-02-12T18:21:39.357Z,46.00
2023-02-12T18:24:08.546Z,46.00
2023-02-12T18:26:36.977Z,46.00
2023-02-12T18:29:05.532Z,46.50
2023-02-12T18:31:35.357Z,46.50
2023-02-12T18:34:05.085Z,46.60
2023-02-12T18:36:35.064Z,46.80
2023-02-12T18:39:03.548Z,46.70
2023-02-12T18:41:35.811Z,46.80
2023-02-12T18:44:05.377Z,47.00
2023-02-12T18:46:34.047Z,47.00
2023-02-12T18:49:02.751Z,47.10
2023-02-12T18:51:36.480Z,47.10
2023-02-12T18:54:08.711Z,47.70
2023-02-12T18:56:40.117Z,47.20
2023-02-12T18:59:09.716Z,47.70
2023-02-12T19:01:38.729Z,47.60
2023-02-12T19:04:09.356Z,47.60
2023-02-12T19:06:42.388Z,49.20
2023-02-12T19:09:16.818Z,49.50
2023-02-12T19:11:46.859Z,48.70
2023-02-12T19:14:15.398Z,48.30
2023-02-12T19:16:44.988Z,48.00
2023-02-12T19:19:14.510Z,47.90
2023-02-12T19:21:43.523Z,47.90
2023-02-12T19:24:15.616Z,47.90
2023-02-12T19:26:44.919Z,48.10
2023-02-12T19:29:14.127Z,48.50
2023-02-12T19:31:46.235Z,48.50
2023-02-12T19:34:17.943Z,48.50
2023-02-12T19:36:47.018Z,48.40
2023-02-12T19:39:19.039Z,48.40
2023-02-12T19:41:47.825Z,48.30
2023-02-12T19:44:19.067Z,48.30
2023-02-12T19:46:48.735Z,48.30
2023-02-12T19:49:18.995Z,48.30
2023-02-12T19:51:47.538Z,48.30
2023-02-12T19:54:18.485Z,48.40
2023-02-12T19:56:47.572Z,48.40
2023-02-12T19:59:18.293Z,48.60
2023-02-12T20:01:48.380Z,48.70
2023-02-12T20:04:19.775Z,48.80
2023-02-12T20:06:50.886Z,48.80
2023-02-12T20:09:22.114Z,48.90
2023-02-12T20:11:51.254Z,48.80
2023-02-12T20:14:20.985Z,49.00
2023-02-12T20:16:50.152Z,49.00
2023-02-12T20:19:21.385Z,49.00
2023-02-12T20:21:54.369Z,49.00
2023-02-12T20:24:25.405Z,49.00
2023-02-12T20:26:54.233Z,49.30
2023-02-12T20:29:23.460Z,49.70
2023-02-12T20:31:52.144Z,49.40
2023-02-12T20:34:22.308Z,49.40
2023-02-12T20:36:50.854Z,49.40
2023-02-12T20:39:21.412Z,49.30
2023-02-12T20:41:51.535Z,49.40
2023-02-12T20:44:21.734Z,49.90
2023-02-12T20:46:55.831Z,49.60
2023-02-12T20:49:26.511Z,49.70
2023-02-12T20:51:55.202Z,50.00
2023-02-12T20:54:24.009Z,50.00
2023-02-12T20:56:53.893Z,49.90
2023-02-12T20:59:22.352Z,50.20
2023-02-12T21:01:50.952Z,50.10
2023-02-12T21:04:20.267Z,50.00
2023-02-12T21:06:49.591Z,49.90
2023-02-12T21:09:18.882Z,49.90
2023-02-12T21:11:47.890Z,50.00
2023-02-12T21:14:25.711Z,50.00
2023-02-12T21:16:55.323Z,50.10
2023-02-12T21:19:24.213Z,50.10
2023-02-12T21:21:52.691Z,50.20
2023-02-12T21:24:23.321Z,50.10
2023-02-12T21:26:52.706Z,50.20
2023-02-12T21:29:23.492Z,50.30
2023-02-12T21:31:52.383Z,50.40
2023-02-12T21:34:23.200Z,50.50
2023-02-12T21:36:54.092Z,51.10
2023-02-12T21:39:27.224Z,50.50
2023-02-12T21:41:57.537Z,50.50
2023-02-12T21:44:27.716Z,50.60
2023-02-12T21:46:56.879Z,50.60
2023-02-12T21:49:28.848Z,50.60
2023-02-12T21:51:59.826Z,50.80
2023-02-12T21:54:29.289Z,50.80
2023-02-12T21:56:58.180Z,50.80
2023-02-12T21:59:30.146Z,50.90
2023-02-12T22:02:00.857Z,50.90
2023-02-12T22:04:29.888Z,50.90
2023-02-12T22:07:03.599Z,50.90
2023-02-12T22:09:32.375Z,51.00
2023-02-12T22:12:00.732Z,50.90
2023-02-12T22:14:30.513Z,50.90
2023-02-12T22:16:59.341Z,50.90
2023-02-12T22:19:27.774Z,51.00
2023-02-12T22:21:56.197Z,51.10
2023-02-12T22:24:24.574Z,51.40
2023-02-12T22:26:52.959Z,51.50
2023-02-12T22:29:22.928Z,51.60
2023-02-12T22:31:53.667Z,51.70
2023-02-12T22:34:22.174Z,52.10
2023-02-12T22:36:50.654Z,52.00
2023-02-12T22:39:19.414Z,51.90
2023-02-12T22:41:48.245Z,52.40
2023-02-12T22:44:19.964Z,51.90
2023-02-12T22:46:49.935Z,51.80
2023-02-12T22:49:19.644Z,51.70
2023-02-12T22:51:48.039Z,51.70
2023-02-12T22:54:18.009Z,51.70
2023-02-12T22:56:47.180Z,51.80
2023-02-12T22:59:15.653Z,51.80
2023-02-12T23:01:43.969Z,51.80
2023-02-12T23:04:16.827Z,51.80
2023-02-12T23:06:46.801Z,51.90
2023-02-12T23:09:18.155Z,52.10
2023-02-12T23:11:46.553Z,52.10
2023-02-12T23:14:15.512Z,52.40
2023-02-12T23:16:43.923Z,53.00
2023-02-12T23:19:12.890Z,52.90
2023-02-12T23:21:41.517Z,53.00
2023-02-12T23:24:13.945Z,53.20
2023-02-12T23:26:42.337Z,53.30
2023-02-12T23:29:10.884Z,53.30
2023-02-12T23:31:39.570Z,53.30
2023-02-12T23:34:07.989Z,53.20
2023-02-12T23:36:36.342Z,53.10
2023-02-12T23:39:06.294Z,52.90
2023-02-12T23:41:36.138Z,53.00
2023-02-12T23:44:04.881Z,52.90
2023-02-12T23:46:33.253Z,52.90
2023-02-12T23:49:01.793Z,53.00
2023-02-12T23:51:30.164Z,53.10
2023-02-12T23:53:58.624Z,53.30
2023-02-12T23:56:27.483Z,53.30
2023-02-12T23:58:58.419Z,53.40
